Time;durP1;ratioP1;P1;durP2;ratioP2;P2;SDS_P1;SDS_P2;PMS_P1;PMS_P2;Temp;Humidity;BMP_temperature;BMP_pressure;BME280_temperature;BME280_humidity;BME280_pressure;Samples;Min_cycle;Max_cycle;Signal;HPM_P1;HPM_P2
2022/06/11 00:01:20;;;;;;;3.88;3.47;;;16.40;99.90;;;;;;5051458;28;20293;-83
2022/06/11 00:03:50;;;;;;;3.70;3.40;;;16.50;99.90;;;;;;5051496;28;20206;-82
2022/06/11 00:06:20;;;;;;;7.43;3.78;;;16.50;99.90;;;;;;5054670;28;20202;-82
2022/06/11 00:08:49;;;;;;;4.82;3.28;;;16.50;99.90;;;;;;5054829;28;20233;-82
2022/06/11 00:11:18;;;;;;;3.25;2.95;;;16.50;99.90;;;;;;5055117;28;20233;-82
2022/06/11 00:13:46;;;;;;;4.55;3.75;;;16.50;99.90;;;;;;5055321;28;20232;-82
2022/06/11 00:16:16;;;;;;;4.28;3.55;;;16.50;99.90;;;;;;5055682;28;20240;-82
2022/06/11 00:18:46;;;;;;;3.60;3.17;;;16.50;99.90;;;;;;5055009;28;20217;-83
2022/06/11 00:21:16;;;;;;;3.83;3.50;;;16.50;99.90;;;;;;5055010;28;20213;-85
2022/06/11 00:23:46;;;;;;;2.92;2.72;;;16.50;99.90;;;;;;5055025;28;20271;-83
2022/06/11 00:26:14;;;;;;;4.00;3.63;;;16.40;99.90;;;;;;5055721;28;20281;-82
2022/06/11 00:28:43;;;;;;;3.90;3.60;;;16.50;99.90;;;;;;5052329;28;20221;-82
2022/06/11 00:31:12;;;;;;;3.50;3.20;;;16.50;99.90;;;;;;5054414;28;20256;-83
2022/06/11 00:33:41;;;;;;;4.10;3.25;;;16.50;99.90;;;;;;5054986;28;20209;-82
2022/06/11 00:36:11;;;;;;;3.10;2.83;;;16.50;99.90;;;;;;5054724;28;20277;-82
2022/06/11 00:38:41;;;;;;;3.28;2.97;;;16.50;99.90;;;;;;5054388;28;20288;-83
2022/06/11 00:41:11;;;;;;;3.55;3.25;;;16.50;99.90;;;;;;5054903;28;20251;-82
2022/06/11 00:43:42;;;;;;;3.42;3.13;;;16.50;99.90;;;;;;5055283;28;20202;-82
2022/06/11 00:46:40;;;;;;;3.75;3.45;;;16.50;99.90;;;;;;5054480;28;20205;-82
2022/06/11 00:49:17;;;;;;;3.20;3.00;;;16.50;99.90;;;;;;5055150;28;20305;-82
2022/06/11 00:51:47;;;;;;;5.53;3.85;;;16.50;99.90;;;;;;5034667;28;20309;-82
2022/06/11 00:54:18;;;;;;;3.92;3.63;;;16.50;99.90;;;;;;5053121;28;20289;-82
2022/06/11 00:56:52;;;;;;;3.58;3.28;;;16.50;99.90;;;;;;5054850;28;20265;-83
2022/06/11 00:59:28;;;;;;;4.32;3.80;;;16.40;99.90;;;;;;5051148;28;20260;-82
2022/06/11 01:01:57;;;;;;;3.88;3.47;;;16.40;99.90;;;;;;5054456;28;20263;-82
2022/06/11 01:04:39;;;;;;;3.90;3.60;;;16.50;99.90;;;;;;5054538;28;20324;-82
2022/06/11 01:07:22;;;;;;;3.38;3.17;;;16.40;99.90;;;;;;5054515;28;20230;-82
2022/06/11 01:10:05;;;;;;;3.65;3.35;;;16.40;99.90;;;;;;5054540;28;20317;-82
2022/06/11 01:12:44;;;;;;;4.28;3.92;;;16.40;99.90;;;;;;5054229;28;20300;-82
2022/06/11 01:15:17;;;;;;;3.72;3.42;;;16.40;99.90;;;;;;5055091;28;20228;-82
2022/06/11 01:17:53;;;;;;;4.25;3.85;;;16.40;99.90;;;;;;5053935;28;20201;-83
2022/06/11 01:20:41;;;;;;;3.42;3.13;;;16.40;99.90;;;;;;5054755;28;20297;-83
2022/06/11 01:24:16;;;;;;;5.28;3.42;;;16.40;99.90;;;;;;5034852;28;20293;-82
2022/06/11 01:27:19;;;;;;;3.55;3.25;;;16.30;99.90;;;;;;5049684;28;20202;-82
2022/06/11 01:29:54;;;;;;;3.72;3.42;;;16.30;99.90;;;;;;5024801;28;20237;-82
2022/06/11 01:32:33;;;;;;;3.75;3.40;;;16.30;99.90;;;;;;5054553;28;20252;-82
2022/06/11 01:35:24;;;;;;;2.75;2.60;;;16.40;99.90;;;;;;5054586;28;20213;-82
2022/06/11 01:37:57;;;;;;;3.58;3.28;;;16.30;99.90;;;;;;5054302;28;20285;-83
2022/06/11 01:40:37;;;;;;;9.77;3.67;;;16.30;99.90;;;;;;5053770;28;20256;-82
2022/06/11 01:43:16;;;;;;;4.45;3.35;;;16.20;99.90;;;;;;5054133;28;20225;-83
2022/06/11 01:45:47;;;;;;;3.83;3.53;;;16.20;99.90;;;;;;5053396;28;20247;-83
2022/06/11 01:48:18;;;;;;;3.45;3.15;;;16.20;99.90;;;;;;5054247;28;20222;-82
2022/06/11 01:51:03;;;;;;;3.25;2.95;;;16.20;99.90;;;;;;5054206;28;20233;-82
2022/06/11 01:53:44;;;;;;;4.22;3.58;;;16.20;99.90;;;;;;5053807;28;20252;-82
2022/06/11 01:56:41;;;;;;;3.50;3.25;;;16.20;99.90;;;;;;5054151;28;20293;-83
2022/06/11 01:59:27;;;;;;;3.80;3.25;;;16.20;99.90;;;;;;5053749;28;20249;-82
2022/06/11 02:02:14;;;;;;;3.78;3.47;;;16.10;99.90;;;;;;5054017;28;20317;-82
2022/06/11 02:04:50;;;;;;;3.95;3.42;;;16.10;99.90;;;;;;5052170;28;20201;-82
2022/06/11 02:07:26;;;;;;;4.47;3.53;;;16.10;99.90;;;;;;5053796;28;20240;-82
2022/06/11 02:10:03;;;;;;;6.70;3.20;;;16.00;99.90;;;;;;5033582;28;20225;-82
2022/06/11 02:12:39;;;;;;;4.20;3.33;;;16.00;99.90;;;;;;5036546;28;20217;-82
2022/06/11 02:15:14;;;;;;;3.35;3.05;;;16.00;99.90;;;;;;5034436;28;20202;-82
2022/06/11 02:17:49;;;;;;;3.33;3.05;;;16.00;99.90;;;;;;5040817;28;20244;-82
2022/06/11 02:20:22;;;;;;;3.70;3.40;;;16.00;99.90;;;;;;5053311;28;20288;-82
2022/06/11 02:22:57;;;;;;;3.10;2.90;;;16.00;99.90;;;;;;5053438;28;20197;-82
2022/06/11 02:25:29;;;;;;;3.63;2.95;;;16.00;99.90;;;;;;5053772;28;20297;-83
2022/06/11 02:28:01;;;;;;;3.78;3.00;;;15.90;99.90;;;;;;5052998;28;20198;-82
2022/06/11 02:30:32;;;;;;;3.33;3.03;;;15.90;99.90;;;;;;5052583;28;20300;-82
2022/06/11 02:33:02;;;;;;;5.50;3.13;;;15.90;99.90;;;;;;5052715;28;20305;-82
2022/06/11 02:35:37;;;;;;;3.28;2.97;;;15.90;99.90;;;;;;5053218;28;20236;-82
2022/06/11 02:38:09;;;;;;;2.92;2.72;;;15.90;99.90;;;;;;5053337;28;20278;-82
2022/06/11 02:40:45;;;;;;;2.95;2.72;;;15.90;99.90;;;;;;5052848;28;20253;-82
2022/06/11 02:43:14;;;;;;;2.97;2.78;;;15.90;99.90;;;;;;5053425;28;20224;-82
2022/06/11 02:45:43;;;;;;;3.90;3.15;;;15.90;99.90;;;;;;5052483;28;20225;-82
2022/06/11 02:48:14;;;;;;;3.50;3.20;;;15.90;99.90;;;;;;5053184;28;20222;-82
2022/06/11 02:50:43;;;;;;;3.05;2.85;;;15.80;99.90;;;;;;5052630;28;20229;-82
2022/06/11 02:53:12;;;;;;;3.67;3.35;;;15.80;99.90;;;;;;5052814;28;20283;-82
2022/06/11 02:55:41;;;;;;;3.28;2.97;;;15.80;99.90;;;;;;5052730;28;20218;-82
2022/06/11 02:58:12;;;;;;;4.10;3.67;;;15.70;99.90;;;;;;5052863;28;20249;-82
2022/06/11 03:00:44;;;;;;;4.72;3.20;;;15.70;99.90;;;;;;5052656;28;20205;-82
2022/06/11 03:03:15;;;;;;;3.47;3.17;;;15.70;99.90;;;;;;5052910;28;20198;-82
2022/06/11 03:05:44;;;;;;;3.22;2.92;;;15.70;99.90;;;;;;5052713;28;20205;-82
2022/06/11 03:08:12;;;;;;;3.47;3.17;;;15.60;99.90;;;;;;5052910;28;20248;-82
2022/06/11 03:10:41;;;;;;;2.88;2.67;;;15.60;99.90;;;;;;5052056;28;20240;-82
2022/06/11 03:13:09;;;;;;;2.80;2.60;;;15.60;99.90;;;;;;5052707;28;20312;-82
2022/06/11 03:15:38;;;;;;;4.13;3.15;;;15.60;99.90;;;;;;5052497;28;20201;-82
2022/06/11 03:18:07;;;;;;;5.82;3.33;;;15.60;99.90;;;;;;5052204;28;20336;-82
2022/06/11 03:20:37;;;;;;;3.75;3.40;;;15.60;99.90;;;;;;5052444;28;20233;-82
2022/06/11 03:23:06;;;;;;;3.63;3.33;;;15.60;99.90;;;;;;5052679;28;20224;-82
2022/06/11 03:25:35;;;;;;;3.40;3.10;;;15.60;99.90;;;;;;5052570;28;20221;-82
2022/06/11 03:28:07;;;;;;;5.35;3.83;;;15.60;99.90;;;;;;5052068;28;20305;-83
2022/06/11 03:30:35;;;;;;;4.05;3.17;;;15.60;99.90;;;;;;5052537;28;20241;-82
2022/06/11 03:33:04;;;;;;;4.22;3.20;;;15.70;99.90;;;;;;5051916;28;20218;-82
2022/06/11 03:35:34;;;;;;;3.63;3.25;;;15.70;99.90;;;;;;5052268;28;20251;-82
2022/06/11 03:38:07;;;;;;;3.58;3.28;;;15.80;99.90;;;;;;5048854;28;20224;-82
2022/06/11 03:40:36;;;;;;;3.70;3.40;;;15.80;99.90;;;;;;5054140;28;20209;-82
2022/06/11 03:43:04;;;;;;;3.25;3.05;;;15.80;99.90;;;;;;5048660;28;20269;-82
2022/06/11 03:45:34;;;;;;;3.28;2.97;;;15.80;99.90;;;;;;5056224;28;20217;-82
2022/06/11 03:48:02;;;;;;;3.90;3.60;;;15.80;99.90;;;;;;5056151;28;20290;-82
2022/06/11 03:50:34;;;;;;;4.57;3.17;;;15.80;99.90;;;;;;5056335;28;20193;-82
2022/06/11 03:53:06;;;;;;;3.95;3.30;;;15.90;99.90;;;;;;5056166;28;20221;-82
2022/06/11 03:55:35;;;;;;;4.68;3.60;;;15.90;99.90;;;;;;5056636;28;20205;-82
2022/06/11 03:58:04;;;;;;;3.53;3.13;;;15.90;99.90;;;;;;5048228;28;20218;-82
2022/06/11 04:03:20;;;;;;;4.47;3.25;;;16.00;99.90;;;;;;5056444;28;20202;-82
2022/06/11 04:05:51;;;;;;;6.65;3.28;;;16.00;99.90;;;;;;5056140;28;20216;-82
2022/06/11 04:08:22;;;;;;;3.00;2.80;;;16.00;99.90;;;;;;5056006;28;20233;-82
2022/06/11 04:10:51;;;;;;;3.28;2.97;;;16.10;99.90;;;;;;5055573;28;20221;-82
2022/06/11 04:13:21;;;;;;;3.45;3.15;;;16.10;99.90;;;;;;5055921;28;20213;-82
2022/06/11 04:15:51;;;;;;;3.22;2.95;;;16.20;99.90;;;;;;5056170;28;20198;-82
2022/06/11 04:18:27;;;;;;;3.78;3.25;;;16.20;99.90;;;;;;5055787;28;20209;-82
2022/06/11 04:20:56;;;;;;;5.30;3.30;;;16.20;99.90;;;;;;5055498;28;20308;-82
2022/06/11 04:23:29;;;;;;;2.92;2.63;;;16.20;99.90;;;;;;5055396;28;20289;-82
2022/06/11 04:25:58;;;;;;;2.95;2.75;;;16.20;99.90;;;;;;5056191;28;20229;-82
2022/06/11 04:28:29;;;;;;;2.85;2.50;;;16.30;99.90;;;;;;5055680;28;20298;-83
2022/06/11 04:30:58;;;;;;;2.88;2.55;;;16.30;99.90;;;;;;5055787;28;20228;-82
2022/06/11 04:33:27;;;;;;;2.60;2.40;;;16.40;99.90;;;;;;5054903;28;20214;-82
2022/06/11 04:35:55;;;;;;;4.95;3.53;;;16.40;99.90;;;;;;5055756;28;20226;-82
2022/06/11 04:38:25;;;;;;;2.50;2.30;;;16.40;99.90;;;;;;5055025;28;20294;-83
2022/06/11 04:40:54;;;;;;;3.03;2.83;;;16.40;99.90;;;;;;5055256;28;20206;-82
2022/06/11 04:43:23;;;;;;;2.83;2.35;;;16.50;99.90;;;;;;5055236;28;20289;-82
2022/06/11 04:45:51;;;;;;;3.40;3.10;;;16.60;99.90;;;;;;5055706;28;20210;-82
2022/06/11 04:48:20;;;;;;;3.17;2.92;;;16.60;99.90;;;;;;5054625;28;20218;-82
2022/06/11 04:50:48;;;;;;;2.97;2.78;;;16.70;99.90;;;;;;5055577;28;20252;-82
2022/06/11 04:53:16;;;;;;;3.50;2.67;;;16.80;99.90;;;;;;5053844;28;20309;-82
2022/06/11 04:55:46;;;;;;;3.28;2.70;;;16.80;99.90;;;;;;5055229;28;20265;-82
2022/06/11 04:58:15;;;;;;;2.97;2.78;;;16.90;99.90;;;;;;5048513;28;20316;-82
2022/06/11 05:00:44;;;;;;;2.45;2.28;;;17.00;99.90;;;;;;5054698;28;20202;-82
2022/06/11 05:03:12;;;;;;;2.38;2.28;;;17.00;99.90;;;;;;5035320;28;20194;-82
2022/06/11 05:05:42;;;;;;;2.70;2.47;;;17.10;99.90;;;;;;5040210;28;20198;-82
2022/06/11 05:08:11;;;;;;;2.47;2.28;;;17.10;99.90;;;;;;5054621;28;20240;-82
2022/06/11 05:10:40;;;;;;;3.13;2.92;;;17.20;99.90;;;;;;5054827;28;20233;-82
2022/06/11 05:13:12;;;;;;;3.60;2.92;;;17.20;99.90;;;;;;5054542;28;20213;-82
2022/06/11 05:15:43;;;;;;;2.78;2.35;;;17.20;99.90;;;;;;5055063;28;20208;-82
2022/06/11 05:18:12;;;;;;;2.45;2.28;;;17.30;99.90;;;;;;5054555;28;20309;-82
2022/06/11 05:20:41;;;;;;;2.63;2.42;;;17.40;99.90;;;;;;5054030;28;20289;-82
2022/06/11 05:23:09;;;;;;;2.78;2.58;;;17.40;99.90;;;;;;5054841;28;20213;-83
2022/06/11 05:25:41;;;;;;;2.63;2.42;;;17.50;99.90;;;;;;5054367;28;20194;-83
2022/06/11 05:28:16;;;;;;;2.33;2.13;;;17.50;99.90;;;;;;5054218;28;20241;-84
2022/06/11 05:30:45;;;;;;;2.90;2.60;;;17.50;99.90;;;;;;5053986;28;20236;-83
2022/06/11 05:33:13;;;;;;;4.68;2.65;;;17.60;99.90;;;;;;5054042;28;20270;-85
2022/06/11 05:35:43;;;;;;;2.88;2.60;;;17.60;99.90;;;;;;5054229;28;20261;-88
2022/06/11 05:38:17;;;;;;;3.55;3.22;;;17.70;99.90;;;;;;5043377;28;20218;-90
2022/06/11 05:40:48;;;;;;;2.60;2.40;;;17.70;99.90;;;;;;5054252;28;20209;-86
2022/06/11 05:43:18;;;;;;;2.95;2.75;;;17.70;99.90;;;;;;5054062;28;20198;-82
2022/06/11 05:45:50;;;;;;;2.53;2.28;;;17.80;99.90;;;;;;5048171;28;20221;-83
2022/06/11 05:48:21;;;;;;;2.83;2.60;;;17.90;99.90;;;;;;5047970;28;20253;-82
2022/06/11 05:50:54;;;;;;;2.92;2.63;;;17.90;99.90;;;;;;5039828;28;20248;-82
2022/06/11 05:53:25;;;;;;;2.60;2.40;;;17.90;99.90;;;;;;5045034;28;20280;-82
2022/06/11 05:55:56;;;;;;;3.70;3.10;;;18.00;99.90;;;;;;5041806;28;20249;-83
2022/06/11 05:58:32;;;;;;;4.28;2.92;;;18.10;99.90;;;;;;5043704;28;20233;-83
2022/06/11 06:01:03;;;;;;;2.63;2.42;;;18.20;99.90;;;;;;5047196;28;20216;-82
2022/06/11 06:03:31;;;;;;;4.47;2.85;;;18.30;99.90;;;;;;5043214;28;20222;-82
2022/06/11 06:05:59;;;;;;;2.78;2.55;;;18.40;99.90;;;;;;5034131;28;20246;-83
2022/06/11 06:08:28;;;;;;;2.67;2.47;;;18.50;99.90;;;;;;5034238;28;20226;-82
2022/06/11 06:10:56;;;;;;;2.58;2.38;;;18.50;99.90;;;;;;5033497;28;20296;-83
2022/06/11 06:16:11;;;;;;;2.30;2.20;;;18.70;99.90;;;;;;5042574;28;20296;-83
2022/06/11 06:18:39;;;;;;;3.20;2.33;;;18.70;99.90;;;;;;5053893;28;20226;-83
2022/06/11 06:21:08;;;;;;;6.03;2.50;;;18.80;99.90;;;;;;5053581;28;20225;-83
2022/06/11 06:23:37;;;;;;;3.00;2.67;;;18.90;99.90;;;;;;5053229;28;20251;-82
2022/06/11 06:26:06;;;;;;;3.33;2.35;;;19.00;99.90;;;;;;5053476;28;20240;-82
2022/06/11 06:28:35;;;;;;;2.75;2.47;;;19.10;99.90;;;;;;5052496;28;20271;-83
2022/06/11 06:31:05;;;;;;;2.42;2.22;;;19.20;99.90;;;;;;5052758;28;20206;-84
2022/06/11 06:33:34;;;;;;;7.00;2.58;;;19.30;99.90;;;;;;5053318;28;20218;-87
2022/06/11 06:36:09;;;;;;;1.90;1.80;;;19.40;99.90;;;;;;5053530;28;20290;-83
2022/06/11 06:38:39;;;;;;;2.53;2.20;;;19.50;99.90;;;;;;5052934;28;20221;-85
2022/06/11 06:41:08;;;;;;;2.22;2.03;;;19.60;99.90;;;;;;5053257;28;20236;-85
2022/06/11 06:43:38;;;;;;;10.02;2.55;;;19.70;99.90;;;;;;5049868;28;20198;-84
2022/06/11 06:46:06;;;;;;;2.55;2.35;;;19.80;99.90;;;;;;5051536;28;20212;-85
2022/06/11 06:48:45;;;;;;;2.35;2.10;;;19.90;99.90;;;;;;5052836;28;20275;-85
2022/06/11 06:51:18;;;;;;;2.40;2.20;;;20.00;99.90;;;;;;5052320;28;20302;-85
2022/06/11 06:54:02;;;;;;;2.08;1.98;;;20.10;99.90;;;;;;5053345;28;20206;-87
2022/06/11 06:56:47;;;;;;;3.05;2.08;;;20.30;99.90;;;;;;5052222;28;20247;-85
2022/06/11 07:03:00;;;;;;;2.20;2.00;;;20.60;99.90;;;;;;4987089;28;20203;-85
2022/06/11 07:05:43;;;;;;;1.80;1.70;;;20.70;99.90;;;;;;4991132;28;20192;-85
2022/06/11 07:08:16;;;;;;;1.88;1.77;;;21.00;99.90;;;;;;4984008;28;20227;-85
2022/06/11 07:10:57;;;;;;;2.42;2.20;;;21.30;99.90;;;;;;4990860;28;20286;-85
2022/06/11 07:13:36;;;;;;;2.55;2.00;;;21.70;99.90;;;;;;4991548;28;20203;-84
2022/06/11 07:16:25;;;;;;;2.22;2.13;;;22.00;99.90;;;;;;4978043;28;20247;-85
2022/06/11 07:19:00;;;;;;;2.55;1.98;;;22.30;99.90;;;;;;4990952;28;20233;-88
2022/06/11 07:21:38;;;;;;;4.90;2.35;;;22.90;99.90;;;;;;4991116;28;20210;-76
2022/06/11 07:24:10;;;;;;;4.70;2.80;;;23.70;99.90;;;;;;4991330;28;20203;-78
2022/06/11 07:26:44;;;;;;;3.20;2.15;;;24.50;99.90;;;;;;4983228;28;20263;-77
2022/06/11 07:29:16;;;;;;;2.17;1.80;;;25.10;99.90;;;;;;4989259;28;20259;-77
2022/06/11 07:31:48;;;;;;;4.35;2.58;;;25.30;99.90;;;;;;4990926;28;20200;-75
2022/06/11 07:34:19;;;;;;;2.88;2.58;;;25.70;99.90;;;;;;5036635;28;20206;-75
2022/06/11 07:36:48;;;;;;;2.28;2.08;;;26.40;99.90;;;;;;5045896;28;20230;-76
2022/06/11 07:39:16;;;;;;;3.05;2.40;;;26.60;99.90;;;;;;5043203;28;20233;-75
2022/06/11 07:41:44;;;;;;;3.30;2.35;;;27.00;99.90;;;;;;5043707;28;20241;-75
2022/06/11 07:44:12;;;;;;;1.80;1.70;;;27.80;99.90;;;;;;5039098;28;20210;-76
2022/06/11 07:46:41;;;;;;;2.95;2.22;;;28.50;99.90;;;;;;5040376;28;20250;-75
2022/06/11 07:49:11;;;;;;;2.47;2.28;;;29.50;98.50;;;;;;5039892;28;20210;-74
2022/06/11 07:51:39;;;;;;;2.30;2.10;;;28.90;98.10;;;;;;5031929;28;20273;-75
2022/06/11 07:54:07;;;;;;;3.65;2.03;;;29.20;97.90;;;;;;5024758;28;20198;-76
2022/06/11 07:56:59;;;;;;;5.13;2.05;;;29.10;96.30;;;;;;5034724;28;20298;-90
2022/06/11 08:02:38;;;;;;;1.58;1.50;;;30.00;94.50;;;;;;5032331;28;20288;-89
2022/06/11 08:05:28;;;;;;;2.63;2.42;;;30.50;95.90;;;;;;5032118;28;20282;-90
2022/06/11 08:11:09;;;;;;;2.38;2.10;;;31.00;94.00;;;;;;5031937;28;20268;-89
2022/06/11 08:17:27;;;;;;;3.25;2.00;;;32.10;89.30;;;;;;5032065;28;20198;-89
2022/06/11 08:20:02;;;;;;;2.60;2.03;;;32.50;85.30;;;;;;5032062;28;20226;-89
2022/06/11 08:22:43;;;;;;;2.42;1.95;;;33.40;80.30;;;;;;5032296;28;20205;-87
2022/06/11 08:25:50;;;;;;;3.25;2.33;;;33.80;80.10;;;;;;5026423;28;20197;-89
2022/06/11 08:28:33;;;;;;;2.55;1.75;;;33.20;77.70;;;;;;5035096;28;20297;-89
2022/06/11 08:31:31;;;;;;;2.15;1.63;;;33.70;77.20;;;;;;5035604;28;20288;-89
2022/06/11 08:34:40;;;;;;;1.90;1.70;;;34.40;76.20;;;;;;5032970;28;20214;-89
2022/06/11 08:37:31;;;;;;;4.15;1.95;;;33.90;73.80;;;;;;5035189;28;20194;-89
2022/06/11 08:40:16;;;;;;;1.70;1.60;;;33.40;71.50;;;;;;5035211;28;20332;-89
2022/06/11 08:42:57;;;;;;;1.83;1.73;;;33.90;73.60;;;;;;5035131;28;20205;-89
2022/06/11 08:48:44;;;;;;;1.90;1.65;;;34.20;75.20;;;;;;5035038;28;20241;-88
2022/06/11 08:51:28;;;;;;;1.63;1.52;;;34.50;70.80;;;;;;5035187;28;20293;-88
2022/06/11 08:54:21;;;;;;;2.38;2.15;;;34.10;70.20;;;;;;5036679;28;20201;-88
2022/06/11 08:57:24;;;;;;;1.98;1.60;;;33.00;68.40;;;;;;5034890;28;20222;-88
2022/06/11 09:03:57;;;;;;;2.00;1.50;;;32.50;71.50;;;;;;5006959;28;20253;-90
2022/06/11 09:07:19;;;;;;;2.17;1.98;;;32.70;72.30;;;;;;5047646;28;20197;-89
2022/06/11 09:10:57;;;;;;;1.77;1.60;;;33.10;69.60;;;;;;4991282;28;20223;-89
2022/06/11 09:18:23;;;;;;;2.72;2.28;;;33.00;69.90;;;;;;4850374;29;20242;-89
2022/06/11 09:24:23;;;;;;;2.60;2.40;;;32.40;74.20;;;;;;4933611;29;20208;-88
2022/06/11 09:27:22;;;;;;;2.30;2.10;;;32.70;70.80;;;;;;4934608;29;20232;-87
2022/06/11 09:30:18;;;;;;;8.80;2.20;;;32.90;73.00;;;;;;4933771;29;20237;-87
2022/06/11 09:33:11;;;;;;;2.25;2.05;;;33.40;74.20;;;;;;4935156;29;20275;-87
2022/06/11 09:39:47;;;;;;;1.90;1.80;;;31.10;74.20;;;;;;4991849;28;20249;-87
2022/06/11 09:43:03;;;;;;;2.25;1.73;;;31.20;76.10;;;;;;5036808;28;20208;-87
2022/06/11 09:49:44;;;;;;;2.35;1.98;;;30.70;74.30;;;;;;5033601;28;20225;-86
2022/06/11 09:52:35;;;;;;;3.53;2.05;;;31.10;72.00;;;;;;5042015;28;20255;-87
2022/06/11 09:58:28;;;;;;;1.92;1.83;;;31.60;69.50;;;;;;5043711;28;20244;-86
2022/06/11 10:01:21;;;;;;;2.15;2.03;;;31.90;69.00;;;;;;5053554;28;20273;-86
2022/06/11 10:04:11;;;;;;;1.98;1.80;;;32.50;66.00;;;;;;5053520;28;20288;-86
2022/06/11 10:10:08;;;;;;;1.92;1.83;;;31.50;66.10;;;;;;5053044;28;20233;-86
2022/06/11 10:12:57;;;;;;;2.17;1.98;;;30.50;67.50;;;;;;5053747;28;20205;-86
2022/06/11 10:26:28;;;;;;;2.67;2.00;;;31.70;69.50;;;;;;4953215;28;20223;-86
2022/06/11 10:33:07;;;;;;;1.63;1.52;;;32.10;63.60;;;;;;5008558;28;20216;-86
2022/06/11 10:39:07;;;;;;;2.65;1.95;;;32.10;64.30;;;;;;5051059;28;20228;-85
2022/06/11 10:41:45;;;;;;;1.60;1.50;;;31.90;65.20;;;;;;5052828;28;20214;-85
2022/06/11 10:44:50;;;;;;;1.42;1.38;;;31.70;67.80;;;;;;5053089;28;20228;-86
2022/06/11 10:47:29;;;;;;;1.83;1.70;;;31.90;66.40;;;;;;5052199;28;20300;-86
2022/06/11 10:50:25;;;;;;;4.20;1.75;;;31.80;64.30;;;;;;5052239;28;20235;-86
2022/06/11 10:53:01;;;;;;;4.22;2.03;;;31.90;64.90;;;;;;5052397;28;20224;-86
2022/06/11 10:55:47;;;;;;;2.28;1.77;;;31.60;64.20;;;;;;5052908;28;20210;-86
2022/06/11 11:02:24;;;;;;;2.33;2.13;;;31.20;65.10;;;;;;4990184;28;20231;-85
2022/06/11 11:05:28;;;;;;;2.10;1.90;;;31.40;65.20;;;;;;4989904;28;20287;-85
2022/06/11 11:08:04;;;;;;;1.45;1.35;;;31.20;65.10;;;;;;4999022;28;20342;-85
2022/06/11 11:10:47;;;;;;;3.50;1.70;;;31.40;67.10;;;;;;5041554;28;20208;-85
2022/06/11 11:13:54;;;;;;;14.10;2.05;;;31.60;65.80;;;;;;5052057;28;20208;-86
2022/06/11 11:17:08;;;;;;;2.97;2.35;;;32.10;66.00;;;;;;4951705;29;20197;-85
2022/06/11 11:20:34;;;;;;;2.78;2.05;;;32.70;64.70;;;;;;4945978;29;20256;-86
2022/06/11 11:23:34;;;;;;;1.60;1.50;;;33.10;62.70;;;;;;4955800;28;20224;-87
2022/06/11 11:26:39;;;;;;;2.28;2.08;;;33.30;61.20;;;;;;4970219;28;20225;-86
2022/06/11 11:29:20;;;;;;;1.88;1.77;;;33.40;60.40;;;;;;4968861;28;20227;-86
2022/06/11 11:32:02;;;;;;;1.67;1.58;;;33.40;64.20;;;;;;4969609;28;20196;-87
2022/06/11 11:53:04;;;;;;;2.22;2.00;;;31.00;66.60;;;;;;4980460;28;20287;-85
2022/06/11 11:59:44;;;;;;;10.35;2.22;;;31.50;67.50;;;;;;4983725;28;20220;-85
2022/06/11 12:16:28;;;;;;;1.65;1.55;;;31.80;60.80;;;;;;4933320;29;20237;-85
2022/06/11 12:19:55;;;;;;;4.50;2.20;;;31.40;61.20;;;;;;4876755;29;20231;-85
2022/06/11 12:29:47;;;;;;;2.72;2.22;;;31.00;61.10;;;;;;4898424;29;20233;-85
2022/06/11 12:32:21;;;;;;;1.70;1.60;;;31.10;61.80;;;;;;4921050;28;20258;-85
2022/06/11 12:34:53;;;;;;;1.98;1.65;;;31.20;61.90;;;;;;5035388;28;20236;-85
2022/06/11 12:44:00;;;;;;;3.13;1.92;;;30.80;62.10;;;;;;5047785;28;20210;-87
2022/06/11 12:46:59;;;;;;;2.55;2.25;;;30.90;63.50;;;;;;5044452;28;20221;-87
2022/06/11 12:52:58;;;;;;;1.83;1.73;;;31.00;62.20;;;;;;5020913;28;20201;-86
2022/06/11 12:59:31;;;;;;;2.38;1.77;;;30.30;63.40;;;;;;4857973;29;20216;-86
2022/06/11 13:02:25;;;;;;;2.95;2.70;;;30.30;64.60;;;;;;4875055;29;20207;-86
2022/06/11 13:05:23;;;;;;;2.50;2.22;;;30.50;64.10;;;;;;4940067;28;20196;-86
2022/06/11 13:08:29;;;;;;;6.78;3.20;;;30.60;64.60;;;;;;4965436;28;20230;-86
2022/06/11 13:11:18;;;;;;;4.82;2.13;;;30.50;64.30;;;;;;4976566;28;20199;-86
2022/06/11 13:17:16;;;;;;;2.60;2.40;;;30.40;65.50;;;;;;4972836;28;20211;-86
2022/06/11 13:23:23;;;;;;;5.03;2.85;;;29.90;64.80;;;;;;4969941;28;20259;-86
2022/06/11 13:26:26;;;;;;;3.70;2.70;;;29.70;64.20;;;;;;4970964;28;20207;-85
2022/06/11 13:30:01;;;;;;;1.90;1.80;;;29.60;65.50;;;;;;4953216;28;20306;-86
2022/06/11 13:35:41;;;;;;;3.75;2.78;;;29.70;64.70;;;;;;4923786;28;20202;-86
2022/06/11 13:38:22;;;;;;;2.70;2.40;;;30.00;65.10;;;;;;5039514;28;20300;-87
2022/06/11 13:40:59;;;;;;;2.28;1.98;;;29.90;66.30;;;;;;5053415;28;20229;-86
2022/06/11 13:43:44;;;;;;;2.88;2.67;;;29.80;64.50;;;;;;5061107;28;20248;-86
2022/06/11 13:50:25;;;;;;;2.38;2.17;;;29.80;65.60;;;;;;4991011;28;20258;-86
2022/06/11 14:04:23;;;;;;;5.20;2.13;;;29.40;66.20;;;;;;5022186;28;20292;-86
2022/06/11 14:10:36;;;;;;;6.00;2.40;;;29.50;64.60;;;;;;5096257;22;20234;-86
2022/06/11 14:13:53;;;;;;;2.42;2.03;;;29.40;67.40;;;;;;5043399;28;20220;-88
2022/06/11 14:19:47;;;;;;;2.65;2.10;;;29.00;65.60;;;;;;5012933;28;20214;-88
2022/06/11 14:25:53;;;;;;;12.55;2.20;;;28.60;64.50;;;;;;5023851;28;20210;-89
2022/06/11 14:28:49;;;;;;;2.40;1.98;;;28.70;65.30;;;;;;5027644;28;20227;-88
2022/06/11 14:31:18;;;;;;;2.33;2.13;;;28.50;63.80;;;;;;5019403;28;20200;-88
2022/06/11 15:00:00;;;;;;;3.67;2.80;;;27.70;64.80;;;;;;5016788;28;20302;-90
2022/06/11 15:13:02;;;;;;;2.63;2.42;;;27.60;66.40;;;;;;4948094;28;20209;-84
2022/06/11 15:15:51;;;;;;;3.42;2.22;;;27.50;66.70;;;;;;5009541;28;20203;-86
2022/06/11 15:18:27;;;;;;;2.75;1.80;;;27.60;66.40;;;;;;5009159;28;20227;-85
2022/06/11 15:21:02;;;;;;;2.38;2.17;;;27.50;65.60;;;;;;5015644;28;20199;-90
2022/06/11 15:23:38;;;;;;;2.45;2.25;;;27.40;67.50;;;;;;4989344;28;20243;-86
2022/06/11 15:26:13;;;;;;;2.17;1.92;;;27.30;67.10;;;;;;4988630;28;20211;-85
2022/06/11 15:29:03;;;;;;;5.65;2.45;;;27.30;66.80;;;;;;4989463;28;20303;-85
2022/06/11 15:31:51;;;;;;;2.53;2.33;;;27.20;67.30;;;;;;4989531;28;20216;-86
2022/06/11 15:38:05;;;;;;;11.73;2.40;;;27.10;67.20;;;;;;4989296;28;20211;-85
2022/06/11 15:43:57;;;;;;;2.13;2.03;;;27.00;68.00;;;;;;4986460;28;20207;-85
2022/06/11 15:50:23;;;;;;;2.17;2.05;;;26.90;68.40;;;;;;4964650;28;20207;-85
2022/06/11 15:53:22;;;;;;;2.35;2.17;;;26.70;66.10;;;;;;4989808;28;20262;-85
2022/06/11 15:56:02;;;;;;;2.35;2.15;;;26.60;67.00;;;;;;4990178;28;20298;-85
2022/06/11 15:58:49;;;;;;;2.80;2.22;;;26.60;69.10;;;;;;4989340;28;20223;-86
2022/06/11 16:01:23;;;;;;;2.20;2.08;;;26.50;67.90;;;;;;4989326;28;20211;-85
2022/06/11 16:03:52;;;;;;;2.22;2.10;;;26.50;66.60;;;;;;4989765;28;20208;-85
2022/06/11 16:07:17;;;;;;;1.58;1.48;;;26.50;66.20;;;;;;4989654;28;20319;-86
2022/06/11 16:09:58;;;;;;;3.17;2.85;;;26.40;66.70;;;;;;4854432;29;20241;-85
2022/06/11 16:12:30;;;;;;;2.22;1.85;;;26.30;66.60;;;;;;4936789;28;20207;-85
2022/06/11 16:15:09;;;;;;;2.65;2.35;;;26.30;68.50;;;;;;4993134;28;20227;-85
2022/06/11 16:17:48;;;;;;;12.27;2.10;;;26.20;68.80;;;;;;4992943;28;20212;-85
2022/06/11 16:20:32;;;;;;;2.40;2.20;;;26.10;69.40;;;;;;4992866;28;20299;-86
2022/06/11 16:26:47;;;;;;;2.80;2.03;;;26.10;68.20;;;;;;4958277;28;20303;-85
2022/06/11 16:29:21;;;;;;;2.20;2.00;;;26.10;68.50;;;;;;4992654;28;20227;-85
2022/06/11 16:31:50;;;;;;;3.03;2.33;;;26.10;67.80;;;;;;4992881;28;20239;-86
2022/06/11 16:34:24;;;;;;;2.20;2.05;;;26.10;69.00;;;;;;4991881;28;20210;-85
2022/06/11 16:37:18;;;;;;;2.33;2.13;;;26.00;67.30;;;;;;4996527;28;20199;-86
2022/06/11 16:40:25;;;;;;;2.08;1.98;;;25.90;67.20;;;;;;5012712;28;20231;-90
2022/06/11 16:42:58;;;;;;;2.55;2.35;;;25.90;66.60;;;;;;4994362;28;20212;-85
2022/06/11 16:45:32;;;;;;;3.47;2.40;;;25.80;66.30;;;;;;5013232;28;20294;-86
2022/06/11 16:48:02;;;;;;;3.22;2.92;;;25.70;67.50;;;;;;5012982;28;20203;-86
2022/06/11 16:56:35;;;;;;;2.42;2.33;;;25.60;67.60;;;;;;5015774;28;20215;-85
2022/06/11 16:59:11;;;;;;;2.35;1.92;;;25.50;68.60;;;;;;5015643;28;20246;-85
2022/06/11 17:01:52;;;;;;;2.25;2.05;;;25.50;68.80;;;;;;5015793;28;20273;-86
2022/06/11 17:04:29;;;;;;;2.83;2.05;;;25.50;69.10;;;;;;5015640;28;20203;-85
2022/06/11 17:10:31;;;;;;;4.10;2.28;;;25.40;67.60;;;;;;5015133;28;20231;-87
2022/06/11 17:17:30;;;;;;;3.42;2.00;;;25.20;68.20;;;;;;5007882;28;20203;-86
2022/06/11 17:20:00;;;;;;;2.58;1.85;;;25.10;70.20;;;;;;4974111;28;20248;-86
2022/06/11 17:22:37;;;;;;;1.67;1.58;;;25.00;70.20;;;;;;5008381;28;20199;-86
2022/06/11 17:25:46;;;;;;;2.55;2.00;;;25.00;69.60;;;;;;5015181;28;20207;-86
2022/06/11 17:28:33;;;;;;;2.50;2.15;;;24.90;69.00;;;;;;5009812;28;20315;-86
2022/06/11 17:31:17;;;;;;;2.10;2.00;;;24.90;70.00;;;;;;5014613;28;20227;-87